Pickstown, South Dakota
Current Conditions -  °F | °C
As of 10:35 PM on Saturday 20 Dec 2014 (Local Time) from KONL Reporting Station
Haze Haze  
Wind Chill: 26°   Ceiling: 200
Heat Index: 31°   Visibility: 0.75mi
Dew Point: 31°   Wind: 6mph
Humidity: 100%   Direction: 190°S
Pressure: 29.92"   Gusts: NA
Location:  43.07°N, 98.53°W
Report Text: KONL 210435Z AUTO 19005KT 3/4SM BR OVC002 00/00 A2992 RMK AO2 T10031003
Loading
Personal Weather Stations






























Interactive Weather Map New forecast layout! Learn more

10-Day Weather Forecast

Advertisements
Track Severe Weather on mobile